createdAt,value
2019-03-05T05:01:25.676Z,5.40
2019-03-05T05:03:48.155Z,5.40
2019-03-05T05:06:10.681Z,5.40
2019-03-05T05:08:33.223Z,5.40
2019-03-05T05:10:55.664Z,5.40
2019-03-05T05:13:18.194Z,5.30
2019-03-05T06:00:18.495Z,5.00
2019-03-05T06:02:51.001Z,5.00
2019-03-05T06:05:19.640Z,5.00
2019-03-05T06:07:42.167Z,5.00
2019-03-05T06:10:05.451Z,5.10
2019-03-05T06:12:28.003Z,5.10
2019-03-05T06:14:50.431Z,5.10
2019-03-05T07:01:35.387Z,5.70
2019-03-05T07:03:57.837Z,5.80
2019-03-05T07:06:48.966Z,6.00
2019-03-05T07:09:16.227Z,6.20
2019-03-05T07:11:53.711Z,6.40
2019-03-05T07:14:24.226Z,6.70
2019-03-05T08:00:30.177Z,8.40
2019-03-05T08:02:52.846Z,8.90
2019-03-05T08:05:15.504Z,9.10
2019-03-05T08:07:38.067Z,9.20
2019-03-05T08:10:08.005Z,9.20
2019-03-05T08:12:57.969Z,9.30
2019-03-05T09:02:47.960Z,12.90
2019-03-05T09:05:02.200Z,12.90
2019-03-05T09:07:25.247Z,13.10
2019-03-05T09:09:47.701Z,13.40
2019-03-05T09:12:10.319Z,13.50
2019-03-05T09:14:34.491Z,13.40
2019-03-05T10:01:24.740Z,15.20
2019-03-05T10:03:47.278Z,14.30
2019-03-05T10:06:10.979Z,13.70
2019-03-05T10:08:33.407Z,13.20
2019-03-05T10:10:59.086Z,13.20
2019-03-05T10:13:21.756Z,13.20
2019-03-05T11:00:43.908Z,16.50
2019-03-05T11:03:06.997Z,17.10
2019-03-05T11:05:33.019Z,17.20
2019-03-05T11:07:55.696Z,16.60
2019-03-05T11:10:18.616Z,16.60
2019-03-05T11:12:41.418Z,16.80
2019-03-05T12:01:17.436Z,14.00
2019-03-05T12:03:40.083Z,13.90
2019-03-05T12:06:02.548Z,13.80
2019-03-05T12:08:25.193Z,13.70
2019-03-05T12:10:47.727Z,13.60
2019-03-05T12:13:10.279Z,13.50
2019-03-05T13:02:40.261Z,12.00
2019-03-05T13:05:03.712Z,11.90
2019-03-05T13:07:26.284Z,11.90
2019-03-05T13:09:52.615Z,12.00
2019-03-05T13:12:13.223Z,11.80
2019-03-05T13:14:38.291Z,11.70
2019-03-05T14:01:19.050Z,10.70
2019-03-05T14:03:46.651Z,10.70
2019-03-05T14:06:27.232Z,10.60
2019-03-05T14:09:30.029Z,10.60
2019-03-05T14:11:52.820Z,10.60
2019-03-05T14:14:18.351Z,10.50
2019-03-05T15:00:44.262Z,9.80
2019-03-05T15:03:06.855Z,9.80
2019-03-05T15:05:29.327Z,9.80
2019-03-05T15:07:51.946Z,9.80
2019-03-05T15:10:14.511Z,9.70
2019-03-05T15:12:37.298Z,9.70
2019-03-05T15:14:59.776Z,9.60
2019-03-05T16:02:37.902Z,8.60
2019-03-05T16:05:11.114Z,8.60
2019-03-05T16:07:24.935Z,8.50
2019-03-05T16:09:47.459Z,8.40
2019-03-05T16:12:10.792Z,8.40
2019-03-05T16:14:33.880Z,8.40
2019-03-05T17:01:34.731Z,7.50
2019-03-05T17:04:19.402Z,7.60
2019-03-05T17:07:04.763Z,7.50
2019-03-05T17:09:50.971Z,7.50
2019-03-05T17:12:13.825Z,7.50
2019-03-05T17:14:36.467Z,7.40
2019-03-05T18:02:13.759Z,7.30
2019-03-05T18:04:36.443Z,7.30
2019-03-05T18:06:59.219Z,7.30
2019-03-05T18:09:21.941Z,7.20
2019-03-05T18:11:44.856Z,7.20
2019-03-05T18:14:07.837Z,7.20
2019-03-05T19:01:07.355Z,6.90
2019-03-05T19:03:42.418Z,6.90
2019-03-05T19:06:17.368Z,6.90
2019-03-05T19:08:40.146Z,6.80
2019-03-05T19:11:02.881Z,6.80
2019-03-05T19:13:25.630Z,6.80
2019-03-05T20:13:58.671Z,6.80
2019-03-05T21:00:34.632Z,6.60
2019-03-05T21:03:01.959Z,6.60
2019-03-05T21:05:27.357Z,6.60
2019-03-05T21:07:50.295Z,6.60
2019-03-05T21:10:13.008Z,6.60
2019-03-05T21:12:35.977Z,6.60
2019-03-05T21:14:58.503Z,6.70
